createdAt,value
2018-07-05T00:00:35.650Z,6.00
2018-07-05T00:03:15.290Z,5.57
2018-07-05T00:05:54.830Z,8.50
2018-07-05T00:08:34.460Z,7.80
2018-07-05T00:11:13.957Z,6.83
2018-07-05T00:13:53.638Z,8.13
2018-07-05T00:16:33.218Z,7.20
2018-07-05T00:19:12.834Z,6.57
2018-07-05T00:21:52.513Z,6.40
2018-07-05T00:24:31.998Z,6.80
2018-07-05T00:27:11.561Z,7.03
2018-07-05T00:29:51.182Z,7.27
2018-07-05T00:32:30.874Z,5.90
2018-07-05T00:35:10.525Z,7.13
2018-07-05T00:37:50.078Z,7.03
2018-07-05T00:40:29.702Z,6.87
2018-07-05T00:43:09.425Z,6.23
2018-07-05T00:45:49.186Z,6.50
2018-07-05T00:48:28.922Z,6.17
2018-07-05T00:51:08.595Z,6.57
2018-07-05T00:53:48.242Z,6.10
2018-07-05T00:56:27.903Z,6.23
2018-07-05T00:59:07.522Z,7.10
2018-07-05T01:01:47.206Z,6.60
2018-07-05T01:04:26.745Z,7.40
2018-07-05T01:07:06.399Z,7.47
2018-07-05T01:09:46.062Z,6.70
2018-07-05T01:12:25.891Z,6.30
2018-07-05T01:15:05.504Z,7.00
2018-07-05T01:17:45.187Z,6.57
2018-07-05T01:20:25.041Z,6.70
2018-07-05T01:23:04.728Z,7.57
2018-07-05T01:25:44.369Z,6.10
2018-07-05T01:28:24.206Z,6.30
2018-07-05T01:31:03.930Z,6.60
2018-07-05T01:33:43.592Z,7.00
2018-07-05T01:36:23.309Z,6.07
2018-07-05T01:39:02.890Z,6.13
2018-07-05T01:41:42.763Z,6.80
2018-07-05T01:44:22.342Z,6.63
2018-07-05T01:47:02.106Z,6.00
2018-07-05T01:49:41.817Z,6.53
2018-07-05T01:52:21.486Z,6.30
2018-07-05T01:55:01.228Z,6.33
2018-07-05T01:57:40.838Z,6.50
2018-07-05T02:00:20.394Z,6.27
2018-07-05T02:03:00.082Z,6.80
2018-07-05T02:05:39.702Z,6.33
2018-07-05T02:08:19.315Z,7.37
2018-07-05T02:10:59.071Z,7.20
2018-07-05T02:13:38.698Z,7.07
2018-07-05T02:16:18.363Z,6.83
2018-07-05T02:18:57.990Z,6.93
2018-07-05T02:21:37.646Z,7.43
2018-07-05T02:24:17.223Z,6.83
2018-07-05T02:26:56.941Z,6.30
2018-07-05T02:29:36.654Z,7.17
2018-07-05T02:32:16.367Z,6.83
2018-07-05T02:34:56.092Z,7.23
2018-07-05T02:37:41.157Z,7.07
2018-07-05T02:40:20.826Z,8.40
2018-07-05T02:43:00.471Z,6.30
2018-07-05T02:45:40.189Z,6.83
2018-07-05T02:48:19.955Z,7.80
2018-07-05T02:50:59.690Z,6.70
2018-07-05T02:53:39.282Z,6.80
2018-07-05T02:56:18.903Z,7.47
2018-07-05T02:58:58.750Z,7.20
2018-07-05T03:01:38.430Z,6.43
2018-07-05T03:04:18.006Z,7.10
2018-07-05T03:06:57.641Z,8.37
2018-07-05T03:09:37.334Z,6.20
2018-07-05T03:12:17.035Z,7.40
2018-07-05T03:14:56.695Z,7.33
2018-07-05T03:17:36.408Z,6.60
2018-07-05T03:20:16.204Z,6.07
2018-07-05T03:22:55.934Z,6.70
2018-07-05T03:25:35.690Z,6.83
2018-07-05T03:28:15.427Z,6.60
2018-07-05T03:30:55.080Z,6.47
2018-07-05T03:33:34.762Z,6.90
2018-07-05T03:36:14.377Z,7.10
2018-07-05T03:38:53.994Z,6.43
2018-07-05T03:41:33.719Z,7.47
2018-07-05T03:44:13.380Z,7.40
2018-07-05T03:46:52.994Z,7.60
2018-07-05T03:49:32.644Z,7.27
2018-07-05T03:52:12.723Z,9.23
2018-07-05T03:54:52.534Z,7.83
2018-07-05T03:57:32.150Z,8.77
2018-07-05T04:00:11.758Z,8.10
2018-07-05T04:02:51.374Z,7.00
2018-07-05T04:05:31.142Z,8.10
2018-07-05T04:08:10.932Z,9.10
2018-07-05T04:10:50.598Z,7.00
2018-07-05T04:13:30.375Z,7.93
2018-07-05T04:16:10.001Z,9.43
2018-07-05T04:18:49.646Z,8.63
2018-07-05T04:21:29.290Z,8.93
2018-07-05T04:24:08.899Z,9.53
2018-07-05T04:26:48.678Z,9.70
2018-07-05T04:29:28.298Z,9.77
2018-07-05T04:32:08.066Z,10.60
2018-07-05T04:34:47.731Z,9.43
2018-07-05T04:37:27.453Z,10.07
2018-07-05T04:40:07.246Z,12.30
2018-07-05T04:42:46.959Z,10.30
2018-07-05T04:45:26.598Z,11.60
2018-07-05T04:48:06.221Z,11.80
2018-07-05T04:50:45.861Z,11.97
2018-07-05T04:53:25.642Z,14.13
2018-07-05T04:56:05.470Z,12.33
2018-07-05T04:58:45.238Z,13.50
2018-07-05T05:01:24.915Z,14.63
2018-07-05T05:04:04.646Z,14.37
2018-07-05T05:06:44.367Z,15.20
2018-07-05T05:09:23.978Z,16.47
2018-07-05T05:12:03.575Z,14.27
2018-07-05T05:14:43.290Z,16.57
2018-07-05T05:17:22.934Z,15.20
2018-07-05T05:20:02.502Z,14.77
2018-07-05T05:22:42.118Z,13.80
2018-07-05T05:25:21.811Z,16.40
2018-07-05T05:28:01.487Z,16.90
2018-07-05T05:30:41.122Z,15.53
2018-07-05T05:33:20.888Z,17.40
2018-07-05T05:36:00.508Z,16.73
2018-07-05T05:38:40.202Z,16.60
2018-07-05T05:41:19.985Z,14.77
2018-07-05T05:43:59.806Z,14.87
2018-07-05T05:46:39.423Z,11.20
2018-07-05T05:49:19.174Z,14.77
2018-07-05T05:51:58.890Z,12.23
2018-07-05T05:54:38.579Z,12.83
2018-07-05T05:57:18.265Z,12.00
2018-07-05T05:59:58.087Z,11.37
2018-07-05T06:02:37.898Z,11.13
2018-07-05T06:05:17.647Z,10.73
2018-07-05T06:07:57.285Z,12.60
2018-07-05T06:10:36.950Z,10.00
2018-07-05T06:13:16.470Z,9.37
2018-07-05T06:15:56.158Z,10.20
2018-07-05T06:18:35.863Z,9.70
2018-07-05T06:21:15.786Z,8.97
2018-07-05T06:23:55.670Z,9.37
2018-07-05T06:26:35.395Z,11.30
2018-07-05T06:29:15.299Z,9.63
2018-07-05T06:31:55.039Z,8.23
2018-07-05T06:34:34.734Z,7.37
2018-07-05T06:37:14.426Z,7.40
2018-07-05T06:39:54.070Z,7.73
2018-07-05T06:42:33.675Z,6.70
2018-07-05T06:45:13.403Z,6.50
2018-07-05T06:47:53.011Z,5.90
2018-07-05T06:50:32.706Z,6.70
2018-07-05T06:53:12.336Z,6.33
2018-07-05T06:55:51.886Z,5.07
2018-07-05T06:58:31.625Z,5.80
2018-07-05T07:01:11.327Z,6.00
2018-07-05T07:03:51.343Z,4.70
2018-07-05T07:06:31.210Z,6.07
2018-07-05T07:09:10.803Z,6.57
2018-07-05T07:11:50.365Z,5.33
2018-07-05T07:14:29.986Z,5.10
2018-07-05T07:17:09.610Z,4.77
2018-07-05T07:19:49.176Z,5.60
2018-07-05T07:22:28.838Z,5.60
2018-07-05T07:25:08.459Z,4.97
2018-07-05T07:27:48.098Z,5.60
2018-07-05T07:30:27.770Z,7.77
2018-07-05T07:33:07.416Z,6.23
2018-07-05T07:35:47.203Z,6.07
2018-07-05T07:38:27.066Z,6.00
2018-07-05T07:41:06.891Z,5.57
2018-07-05T07:43:34.229Z,5.27
2018-07-05T07:46:01.555Z,5.47
2018-07-05T07:48:28.907Z,5.60
2018-07-05T07:50:56.262Z,4.57
2018-07-05T07:53:23.609Z,4.40
2018-07-05T07:55:50.925Z,4.30
2018-07-05T07:58:18.339Z,3.53
2018-07-05T08:00:45.626Z,4.10
2018-07-05T08:03:12.966Z,3.37
2018-07-05T08:05:40.278Z,4.87
2018-07-05T08:08:07.690Z,4.37
2018-07-05T08:10:34.962Z,4.40
2018-07-05T08:13:02.302Z,4.17
2018-07-05T08:15:29.712Z,4.83
2018-07-05T08:17:57.045Z,3.87
2018-07-05T08:20:24.416Z,3.60
2018-07-05T08:22:51.725Z,2.87
2018-07-05T08:25:19.429Z,2.70
2018-07-05T08:27:47.000Z,3.00
2018-07-05T08:30:14.342Z,3.07
2018-07-05T08:32:41.695Z,3.27
2018-07-05T08:35:09.103Z,2.63
2018-07-05T08:37:36.410Z,2.63
2018-07-05T08:40:03.746Z,2.87
2018-07-05T08:42:31.070Z,2.80
2018-07-05T08:44:58.407Z,2.37
2018-07-05T08:47:26.063Z,2.10
2018-07-05T08:49:53.401Z,3.40
2018-07-05T08:52:20.951Z,2.87
2018-07-05T08:54:48.463Z,2.87
2018-07-05T08:57:15.895Z,2.03
2018-07-05T08:59:43.378Z,2.10
2018-07-05T09:02:10.694Z,2.53
2018-07-05T09:04:38.045Z,2.30
2018-07-05T09:07:05.358Z,2.33
2018-07-05T09:09:32.699Z,2.27
2018-07-05T09:12:00.117Z,2.20
2018-07-05T09:14:27.382Z,2.33
2018-07-05T09:16:54.703Z,2.37
2018-07-05T09:19:22.043Z,1.70
2018-07-05T09:21:49.362Z,2.43
2018-07-05T09:24:16.722Z,2.40
2018-07-05T09:26:44.162Z,2.30
2018-07-05T09:29:11.494Z,1.70
2018-07-05T09:31:38.810Z,1.93
2018-07-05T09:34:06.151Z,2.07
2018-07-05T09:36:33.467Z,2.40
2018-07-05T09:39:00.814Z,1.97
2018-07-05T09:41:28.130Z,2.37
2018-07-05T09:43:55.446Z,2.27
2018-07-05T09:46:22.784Z,1.90
2018-07-05T09:48:50.108Z,1.83
2018-07-05T09:51:17.450Z,2.30
2018-07-05T09:53:44.771Z,2.40
2018-07-05T09:56:12.107Z,1.83
2018-07-05T09:58:39.417Z,1.80
2018-07-05T10:01:09.402Z,1.40
2018-07-05T10:03:36.778Z,2.10
2018-07-05T10:06:04.086Z,1.67
2018-07-05T10:08:31.410Z,2.20
2018-07-05T10:10:58.742Z,1.80
2018-07-05T10:13:26.205Z,1.80
2018-07-05T10:15:53.430Z,2.20
2018-07-05T10:18:20.751Z,2.20
2018-07-05T10:20:48.091Z,1.93
2018-07-05T10:23:15.414Z,2.00
2018-07-05T10:25:42.767Z,3.07
2018-07-05T10:28:10.094Z,2.00
2018-07-05T10:30:49.894Z,1.90
2018-07-05T10:33:29.514Z,1.70
2018-07-05T10:35:56.854Z,2.10
2018-07-05T10:38:24.174Z,2.57
2018-07-05T10:41:03.798Z,2.00
2018-07-05T10:43:43.426Z,1.80
2018-07-05T10:46:23.092Z,1.90
2018-07-05T10:49:02.842Z,2.00
2018-07-05T10:51:42.511Z,1.80
2018-07-05T10:54:22.152Z,2.00
2018-07-05T10:57:01.891Z,1.90
2018-07-05T10:59:41.562Z,2.60
2018-07-05T11:02:21.250Z,2.30
2018-07-05T11:05:00.914Z,2.03
2018-07-05T11:07:40.693Z,2.20
2018-07-05T11:10:20.326Z,1.80
2018-07-05T11:13:00.025Z,2.30
2018-07-05T11:15:39.789Z,2.00
2018-07-05T11:18:19.547Z,2.27
2018-07-05T11:20:59.558Z,2.10
2018-07-05T11:23:39.238Z,1.77
2018-07-05T11:26:18.863Z,2.00
2018-07-05T11:28:58.450Z,2.10
2018-07-05T11:31:38.107Z,1.63
2018-07-05T11:34:18.027Z,2.07
2018-07-05T11:36:57.806Z,2.23
2018-07-05T11:39:37.398Z,2.20
2018-07-05T11:42:17.090Z,1.60
2018-07-05T11:44:56.569Z,1.43
2018-07-05T11:47:36.244Z,2.23
2018-07-05T11:50:15.885Z,1.53
2018-07-05T11:52:55.558Z,1.60
2018-07-05T11:55:35.228Z,1.70
2018-07-05T11:58:14.891Z,1.67
2018-07-05T12:00:54.633Z,1.43
2018-07-05T12:03:34.299Z,1.63
2018-07-05T12:06:13.914Z,1.53
2018-07-05T12:08:53.608Z,1.80
2018-07-05T12:11:33.255Z,1.80
2018-07-05T12:14:12.918Z,1.57
2018-07-05T12:16:52.562Z,1.53
2018-07-05T12:19:32.243Z,1.80
2018-07-05T12:22:12.003Z,1.60
2018-07-05T12:24:51.757Z,1.90
2018-07-05T12:27:31.411Z,1.80
2018-07-05T12:30:11.095Z,1.93
2018-07-05T12:32:50.754Z,2.13
2018-07-05T12:35:30.416Z,2.00
2018-07-05T12:38:10.127Z,1.80
2018-07-05T12:40:49.795Z,2.17
2018-07-05T12:43:29.502Z,2.50
2018-07-05T12:46:09.130Z,1.77
2018-07-05T12:48:48.838Z,2.00
2018-07-05T12:51:28.515Z,1.90
2018-07-05T12:54:08.394Z,2.20
2018-07-05T12:56:48.300Z,2.00
2018-07-05T12:59:29.857Z,1.90
2018-07-05T13:02:09.605Z,1.93
2018-07-05T13:04:49.298Z,2.00
2018-07-05T13:07:29.147Z,1.90
2018-07-05T13:10:08.802Z,2.03
2018-07-05T13:12:48.437Z,2.43
2018-07-05T13:15:27.995Z,2.70
2018-07-05T13:18:07.650Z,2.80
2018-07-05T13:20:47.482Z,2.40
2018-07-05T13:23:27.200Z,2.40
2018-07-05T13:26:06.838Z,2.23
2018-07-05T13:28:46.479Z,2.60
2018-07-05T13:31:26.155Z,2.57
2018-07-05T13:34:05.807Z,2.33
2018-07-05T13:36:45.505Z,2.27
2018-07-05T13:39:25.126Z,2.10
2018-07-05T13:42:04.794Z,2.20
2018-07-05T13:44:44.518Z,2.57
2018-07-05T13:47:24.275Z,2.63
2018-07-05T13:50:04.023Z,2.80
2018-07-05T13:52:43.682Z,3.50
2018-07-05T13:55:23.402Z,2.60
2018-07-05T13:58:03.189Z,2.33
2018-07-05T14:00:43.207Z,2.50
2018-07-05T14:03:22.749Z,3.00
2018-07-05T14:06:02.503Z,2.77
2018-07-05T14:08:42.067Z,3.13
2018-07-05T14:11:21.684Z,3.10
2018-07-05T14:14:01.376Z,3.07
2018-07-05T14:16:41.047Z,3.67
2018-07-05T14:19:20.811Z,2.80
2018-07-05T14:22:00.562Z,3.10
2018-07-05T14:24:40.235Z,2.53
2018-07-05T14:27:19.990Z,2.77
2018-07-05T14:29:59.606Z,3.40
2018-07-05T14:32:39.326Z,3.00
2018-07-05T14:35:19.258Z,5.40
2018-07-05T14:37:58.830Z,3.93
2018-07-05T14:40:38.498Z,3.33
2018-07-05T14:43:18.174Z,2.80
2018-07-05T14:45:57.834Z,3.17
2018-07-05T14:48:37.375Z,3.10
2018-07-05T14:51:17.072Z,3.57
2018-07-05T14:53:56.689Z,3.27
2018-07-05T14:56:36.356Z,3.33
2018-07-05T14:59:15.949Z,3.10
2018-07-05T15:01:55.639Z,3.17
2018-07-05T15:04:35.389Z,3.00
2018-07-05T15:07:15.118Z,3.80
2018-07-05T15:09:54.835Z,3.30
2018-07-05T15:12:34.631Z,3.47
2018-07-05T15:15:15.174Z,2.87
2018-07-05T15:17:56.796Z,3.07
2018-07-05T15:20:36.612Z,2.90
2018-07-05T15:23:16.245Z,3.43
2018-07-05T15:25:55.889Z,3.50
2018-07-05T15:28:35.558Z,3.43
2018-07-05T15:31:15.231Z,3.07
2018-07-05T15:33:54.894Z,3.20
2018-07-05T15:36:34.563Z,3.70
2018-07-05T15:39:14.330Z,3.60
2018-07-05T15:41:54.075Z,3.10
2018-07-05T15:44:33.817Z,3.27
2018-07-05T15:47:13.529Z,3.00
2018-07-05T15:49:53.122Z,3.17
2018-07-05T15:52:32.713Z,3.10
2018-07-05T15:55:12.374Z,3.40
2018-07-05T15:57:52.001Z,4.17
2018-07-05T16:00:31.658Z,4.40
2018-07-05T16:03:11.407Z,2.90
2018-07-05T16:05:51.274Z,3.40
2018-07-05T16:08:31.323Z,3.27
2018-07-05T16:11:11.215Z,2.97
2018-07-05T16:13:51.042Z,3.20
2018-07-05T16:16:30.870Z,4.20
2018-07-05T16:19:10.506Z,3.87
2018-07-05T16:21:50.255Z,3.40
2018-07-05T16:24:30.000Z,3.60
2018-07-05T16:27:09.935Z,3.03
2018-07-05T16:29:49.738Z,3.97
2018-07-05T16:32:29.347Z,4.00
2018-07-05T16:35:09.167Z,3.70
2018-07-05T16:37:48.860Z,3.40
2018-07-05T16:40:28.456Z,4.13
2018-07-05T16:43:08.138Z,2.70
2018-07-05T16:45:47.771Z,3.90
2018-07-05T16:48:27.398Z,3.60
2018-07-05T16:51:07.094Z,3.60
2018-07-05T16:53:46.718Z,3.43
2018-07-05T16:56:26.347Z,3.87
2018-07-05T16:59:06.175Z,3.07
2018-07-05T17:01:45.820Z,3.40
2018-07-05T17:04:25.439Z,3.37
2018-07-05T17:07:05.027Z,3.20
2018-07-05T17:09:44.620Z,2.83
2018-07-05T17:12:24.210Z,2.30
2018-07-05T17:15:03.816Z,2.57
2018-07-05T17:17:43.472Z,2.67
2018-07-05T17:20:23.267Z,3.70
2018-07-05T17:23:02.962Z,2.72
2018-07-05T17:25:42.695Z,2.37
2018-07-05T17:28:22.371Z,2.70
2018-07-05T17:31:01.986Z,2.73
2018-07-05T17:33:41.646Z,2.10
2018-07-05T17:36:21.267Z,3.10
2018-07-05T17:39:01.059Z,2.93
2018-07-05T17:41:40.698Z,2.93
2018-07-05T17:44:20.323Z,2.80
2018-07-05T17:46:59.938Z,2.80
2018-07-05T17:49:39.603Z,3.13
2018-07-05T17:52:19.242Z,2.80
2018-07-05T17:54:59.015Z,2.40
2018-07-05T17:57:38.641Z,2.10
2018-07-05T18:00:18.410Z,2.83
2018-07-05T18:02:58.148Z,3.40
2018-07-05T18:05:37.775Z,2.83
2018-07-05T18:08:17.503Z,2.70
2018-07-05T18:10:57.267Z,2.93
2018-07-05T18:13:36.982Z,1.90
2018-07-05T18:16:16.750Z,2.50
2018-07-05T18:18:56.470Z,2.87
2018-07-05T18:21:36.059Z,2.70
2018-07-05T18:24:15.655Z,2.80
2018-07-05T18:26:55.353Z,2.37
2018-07-05T18:29:34.967Z,2.70
2018-07-05T18:32:14.650Z,2.70
2018-07-05T18:34:54.306Z,2.47
2018-07-05T18:37:33.998Z,2.00
2018-07-05T18:40:13.736Z,2.67
2018-07-05T18:42:53.520Z,2.73
2018-07-05T18:45:33.267Z,2.23
2018-07-05T18:48:12.934Z,2.57
2018-07-05T18:50:52.502Z,2.70
2018-07-05T18:53:32.073Z,2.23
2018-07-05T18:56:11.793Z,2.60
2018-07-05T18:58:51.573Z,2.53
2018-07-05T19:01:31.324Z,2.10
2018-07-05T19:04:11.016Z,2.47
2018-07-05T19:06:50.659Z,2.83
2018-07-05T19:09:30.327Z,2.40
2018-07-05T19:12:10.067Z,2.53
2018-07-05T19:14:49.730Z,3.03
2018-07-05T19:17:29.411Z,3.17
2018-07-05T19:20:09.014Z,2.80
2018-07-05T19:22:48.687Z,2.60
2018-07-05T19:25:28.302Z,2.53
2018-07-05T19:28:07.944Z,2.83
2018-07-05T19:30:47.558Z,2.80
2018-07-05T19:33:27.282Z,3.13
2018-07-05T19:36:07.717Z,3.37
2018-07-05T19:38:47.682Z,3.23
2018-07-05T19:41:27.401Z,3.53
2018-07-05T19:44:07.042Z,3.53
2018-07-05T19:46:46.690Z,3.87
2018-07-05T19:49:26.418Z,3.10
2018-07-05T19:52:06.047Z,3.70
2018-07-05T19:54:45.684Z,3.17
2018-07-05T19:57:25.538Z,3.83
2018-07-05T20:00:05.202Z,2.87
2018-07-05T20:02:45.026Z,3.30
2018-07-05T20:05:24.783Z,3.83
2018-07-05T20:08:04.428Z,3.13
2018-07-05T20:10:44.163Z,3.73
2018-07-05T20:13:23.873Z,3.80
2018-07-05T20:16:03.607Z,3.30
2018-07-05T20:18:43.302Z,3.47
2018-07-05T20:21:23.091Z,3.77
2018-07-05T20:24:02.774Z,3.33
2018-07-05T20:26:42.395Z,10.30
2018-07-05T20:29:21.967Z,4.10
2018-07-05T20:32:01.580Z,3.50
2018-07-05T20:34:41.246Z,3.93
2018-07-05T20:37:20.910Z,4.30
2018-07-05T20:40:01.039Z,3.80
2018-07-05T20:42:40.838Z,3.80
2018-07-05T20:45:20.715Z,4.53
2018-07-05T20:48:00.529Z,3.90
2018-07-05T20:50:40.146Z,3.57
2018-07-05T20:53:19.695Z,3.70
2018-07-05T20:55:59.278Z,4.30
2018-07-05T20:58:40.526Z,4.00
2018-07-05T21:01:21.094Z,4.60
2018-07-05T21:04:00.859Z,4.00
2018-07-05T21:06:40.627Z,4.23
2018-07-05T21:09:20.271Z,4.40
2018-07-05T21:12:00.051Z,4.40
2018-07-05T21:14:39.702Z,3.43
2018-07-05T21:17:19.347Z,4.30
2018-07-05T21:19:59.008Z,4.37
2018-07-05T21:22:38.635Z,4.17
2018-07-05T21:25:18.198Z,4.73
2018-07-05T21:27:57.866Z,4.20
2018-07-05T21:30:37.605Z,3.80
2018-07-05T21:33:17.406Z,4.27
2018-07-05T21:35:57.017Z,4.77
2018-07-05T21:38:36.711Z,4.23
2018-07-05T21:41:16.447Z,4.43
2018-07-05T21:43:56.043Z,3.60
2018-07-05T21:46:35.707Z,4.53
2018-07-05T21:49:15.246Z,4.60
2018-07-05T21:51:54.875Z,4.20
2018-07-05T21:54:34.559Z,4.37
2018-07-05T21:57:14.151Z,4.10
2018-07-05T21:59:53.838Z,4.13
2018-07-05T22:02:33.491Z,4.17
2018-07-05T22:05:13.674Z,4.60
2018-07-05T22:07:54.839Z,3.90
2018-07-05T22:10:34.686Z,5.30
2018-07-05T22:13:14.287Z,4.20
2018-07-05T22:15:53.943Z,3.60
2018-07-05T22:18:39.074Z,4.33
2018-07-05T22:21:19.315Z,3.43
2018-07-05T22:24:04.410Z,3.30
2018-07-05T22:26:45.359Z,3.80
2018-07-05T22:29:30.534Z,3.73
2018-07-05T22:32:10.374Z,4.00
2018-07-05T22:34:50.019Z,3.63
2018-07-05T22:37:29.629Z,3.77
2018-07-05T22:40:09.352Z,4.27
2018-07-05T22:42:48.999Z,2.97
2018-07-05T22:45:28.634Z,3.30
2018-07-05T22:48:08.275Z,3.13
2018-07-05T22:50:47.965Z,3.60
2018-07-05T22:53:27.634Z,3.37
2018-07-05T22:56:07.255Z,3.33
2018-07-05T22:58:46.898Z,3.23
2018-07-05T23:01:26.538Z,2.53
2018-07-05T23:04:06.261Z,2.80
2018-07-05T23:06:45.874Z,3.03
2018-07-05T23:09:25.550Z,2.60
2018-07-05T23:12:05.183Z,3.03
2018-07-05T23:14:44.854Z,2.53
2018-07-05T23:17:24.491Z,2.33
2018-07-05T23:20:04.134Z,2.37
2018-07-05T23:22:43.803Z,2.27
2018-07-05T23:25:23.447Z,2.20
2018-07-05T23:28:03.066Z,2.67
2018-07-05T23:30:42.660Z,2.60
2018-07-05T23:33:22.327Z,2.77
2018-07-05T23:36:01.939Z,1.80
2018-07-05T23:38:41.530Z,2.20
2018-07-05T23:41:21.290Z,2.07
2018-07-05T23:44:00.922Z,2.53
2018-07-05T23:46:40.582Z,2.40
2018-07-05T23:49:20.222Z,2.20
2018-07-05T23:51:59.881Z,2.10
2018-07-05T23:54:39.578Z,1.73
2018-07-05T23:57:19.241Z,2.13
2018-07-05T23:59:58.861Z,1.80
